sensor_id;sensor_type;location;lat;lon;timestamp;P1;durP1;ratioP1;P2;durP2;ratioP2
24407;SDS011;12542;50.924;4.516;2023-06-22T00:02:16;5.40;;;3.90;;
24407;SDS011;12542;50.924;4.516;2023-06-22T00:04:42;5.60;;;3.95;;
24407;SDS011;12542;50.924;4.516;2023-06-22T00:07:08;5.13;;;3.88;;
24407;SDS011;12542;50.924;4.516;2023-06-22T00:09:35;6.32;;;3.58;;
24407;SDS011;12542;50.924;4.516;2023-06-22T00:12:01;5.85;;;3.70;;
24407;SDS011;12542;50.924;4.516;2023-06-22T00:14:32;7.85;;;4.00;;
24407;SDS011;12542;50.924;4.516;2023-06-22T00:16:57;7.13;;;4.20;;
24407;SDS011;12542;50.924;4.516;2023-06-22T00:19:25;6.03;;;4.00;;
24407;SDS011;12542;50.924;4.516;2023-06-22T00:21:51;6.90;;;4.07;;
24407;SDS011;12542;50.924;4.516;2023-06-22T00:24:20;4.75;;;3.42;;
24407;SDS011;12542;50.924;4.516;2023-06-22T00:26:46;6.80;;;3.80;;
24407;SDS011;12542;50.924;4.516;2023-06-22T00:29:13;7.28;;;3.83;;
24407;SDS011;12542;50.924;4.516;2023-06-22T00:31:38;6.32;;;3.78;;
24407;SDS011;12542;50.924;4.516;2023-06-22T00:34:04;12.35;;;4.20;;
24407;SDS011;12542;50.924;4.516;2023-06-22T00:36:33;7.07;;;4.38;;
24407;SDS011;12542;50.924;4.516;2023-06-22T00:39:00;7.20;;;4.85;;
24407;SDS011;12542;50.924;4.516;2023-06-22T00:41:26;6.70;;;4.47;;
24407;SDS011;12542;50.924;4.516;2023-06-22T00:43:54;8.32;;;4.78;;
24407;SDS011;12542;50.924;4.516;2023-06-22T00:46:21;7.70;;;4.80;;
24407;SDS011;12542;50.924;4.516;2023-06-22T00:48:48;8.43;;;4.63;;
24407;SDS011;12542;50.924;4.516;2023-06-22T00:51:14;7.57;;;4.68;;
24407;SDS011;12542;50.924;4.516;2023-06-22T00:53:40;6.20;;;3.95;;
24407;SDS011;12542;50.924;4.516;2023-06-22T00:56:06;9.57;;;4.45;;
24407;SDS011;12542;50.924;4.516;2023-06-22T00:58:33;7.22;;;4.68;;
24407;SDS011;12542;50.924;4.516;2023-06-22T01:01:01;6.85;;;4.43;;
24407;SDS011;12542;50.924;4.516;2023-06-22T01:03:27;7.43;;;4.50;;
24407;SDS011;12542;50.924;4.516;2023-06-22T01:05:53;9.05;;;5.70;;
24407;SDS011;12542;50.924;4.516;2023-06-22T01:08:36;7.07;;;4.70;;
24407;SDS011;12542;50.924;4.516;2023-06-22T01:11:47;7.95;;;4.47;;
24407;SDS011;12542;50.924;4.516;2023-06-22T01:17:24;9.18;;;4.88;;
24407;SDS011;12542;50.924;4.516;2023-06-22T01:19:54;7.57;;;4.40;;
24407;SDS011;12542;50.924;4.516;2023-06-22T01:22:24;7.28;;;4.70;;
24407;SDS011;12542;50.924;4.516;2023-06-22T01:24:59;8.75;;;4.55;;
24407;SDS011;12542;50.924;4.516;2023-06-22T01:30:07;8.43;;;4.63;;
24407;SDS011;12542;50.924;4.516;2023-06-22T01:32:35;7.88;;;4.63;;
24407;SDS011;12542;50.924;4.516;2023-06-22T01:35:03;5.07;;;3.63;;
24407;SDS011;12542;50.924;4.516;2023-06-22T01:37:34;7.03;;;4.30;;
24407;SDS011;12542;50.924;4.516;2023-06-22T01:40:02;7.53;;;3.55;;
24407;SDS011;12542;50.924;4.516;2023-06-22T01:42:30;6.85;;;3.97;;
24407;SDS011;12542;50.924;4.516;2023-06-22T01:44:59;6.60;;;4.63;;
24407;SDS011;12542;50.924;4.516;2023-06-22T01:47:25;4.80;;;3.80;;
24407;SDS011;12542;50.924;4.516;2023-06-22T01:49:52;7.65;;;4.28;;
24407;SDS011;12542;50.924;4.516;2023-06-22T01:52:19;6.18;;;4.20;;
24407;SDS011;12542;50.924;4.516;2023-06-22T01:54:48;7.75;;;4.88;;
24407;SDS011;12542;50.924;4.516;2023-06-22T01:57:14;8.13;;;4.60;;
24407;SDS011;12542;50.924;4.516;2023-06-22T01:59:48;8.77;;;5.72;;
24407;SDS011;12542;50.924;4.516;2023-06-22T02:02:16;8.60;;;4.60;;
24407;SDS011;12542;50.924;4.516;2023-06-22T02:04:51;8.30;;;5.10;;
24407;SDS011;12542;50.924;4.516;2023-06-22T02:07:23;7.57;;;4.82;;
24407;SDS011;12542;50.924;4.516;2023-06-22T02:09:54;7.25;;;4.80;;
24407;SDS011;12542;50.924;4.516;2023-06-22T02:12:23;8.20;;;4.85;;
24407;SDS011;12542;50.924;4.516;2023-06-22T02:14:52;8.15;;;5.45;;
24407;SDS011;12542;50.924;4.516;2023-06-22T02:17:19;9.70;;;5.07;;
24407;SDS011;12542;50.924;4.516;2023-06-22T02:19:48;6.80;;;4.68;;
24407;SDS011;12542;50.924;4.516;2023-06-22T02:22:14;6.75;;;4.68;;
24407;SDS011;12542;50.924;4.516;2023-06-22T02:24:39;8.50;;;4.70;;
24407;SDS011;12542;50.924;4.516;2023-06-22T02:27:05;12.70;;;4.60;;
24407;SDS011;12542;50.924;4.516;2023-06-22T02:29:32;10.10;;;5.22;;
24407;SDS011;12542;50.924;4.516;2023-06-22T02:31:58;11.75;;;5.50;;
24407;SDS011;12542;50.924;4.516;2023-06-22T02:34:24;7.60;;;4.68;;
24407;SDS011;12542;50.924;4.516;2023-06-22T02:36:52;9.52;;;5.35;;
24407;SDS011;12542;50.924;4.516;2023-06-22T02:41:50;7.45;;;4.72;;
24407;SDS011;12542;50.924;4.516;2023-06-22T02:44:19;8.38;;;5.05;;
24407;SDS011;12542;50.924;4.516;2023-06-22T02:46:45;7.38;;;4.75;;
24407;SDS011;12542;50.924;4.516;2023-06-22T02:49:12;7.82;;;5.22;;
24407;SDS011;12542;50.924;4.516;2023-06-22T02:51:39;7.75;;;4.95;;
24407;SDS011;12542;50.924;4.516;2023-06-22T02:54:07;7.75;;;5.20;;
24407;SDS011;12542;50.924;4.516;2023-06-22T02:56:32;8.57;;;4.78;;
24407;SDS011;12542;50.924;4.516;2023-06-22T02:58:58;7.43;;;4.63;;
24407;SDS011;12542;50.924;4.516;2023-06-22T03:01:29;7.40;;;4.80;;
24407;SDS011;12542;50.924;4.516;2023-06-22T03:04:05;9.25;;;4.97;;
24407;SDS011;12542;50.924;4.516;2023-06-22T03:06:32;8.02;;;4.93;;
24407;SDS011;12542;50.924;4.516;2023-06-22T03:09:04;9.48;;;5.00;;
24407;SDS011;12542;50.924;4.516;2023-06-22T03:11:30;7.18;;;5.20;;
24407;SDS011;12542;50.924;4.516;2023-06-22T03:13:57;7.72;;;4.60;;
24407;SDS011;12542;50.924;4.516;2023-06-22T03:16:23;8.23;;;4.57;;
24407;SDS011;12542;50.924;4.516;2023-06-22T03:18:49;6.25;;;4.40;;
24407;SDS011;12542;50.924;4.516;2023-06-22T03:21:15;8.23;;;4.68;;
24407;SDS011;12542;50.924;4.516;2023-06-22T03:23:42;8.88;;;5.03;;
24407;SDS011;12542;50.924;4.516;2023-06-22T03:26:09;10.00;;;4.72;;
24407;SDS011;12542;50.924;4.516;2023-06-22T03:28:35;8.27;;;5.18;;
24407;SDS011;12542;50.924;4.516;2023-06-22T03:31:02;12.10;;;5.20;;
24407;SDS011;12542;50.924;4.516;2023-06-22T03:33:28;10.43;;;4.95;;
24407;SDS011;12542;50.924;4.516;2023-06-22T03:35:55;9.73;;;4.65;;
24407;SDS011;12542;50.924;4.516;2023-06-22T03:38:20;8.23;;;5.45;;
24407;SDS011;12542;50.924;4.516;2023-06-22T03:40:46;9.15;;;5.45;;
24407;SDS011;12542;50.924;4.516;2023-06-22T03:43:12;7.82;;;5.13;;
24407;SDS011;12542;50.924;4.516;2023-06-22T03:45:37;8.07;;;5.60;;
24407;SDS011;12542;50.924;4.516;2023-06-22T03:48:05;7.20;;;5.22;;
24407;SDS011;12542;50.924;4.516;2023-06-22T03:50:31;11.10;;;5.28;;
24407;SDS011;12542;50.924;4.516;2023-06-22T03:52:57;12.48;;;5.95;;
24407;SDS011;12542;50.924;4.516;2023-06-22T03:55:22;9.75;;;6.07;;
24407;SDS011;12542;50.924;4.516;2023-06-22T03:57:48;11.35;;;6.15;;
24407;SDS011;12542;50.924;4.516;2023-06-22T04:00:14;10.63;;;5.93;;
24407;SDS011;12542;50.924;4.516;2023-06-22T04:02:42;8.80;;;6.15;;
24407;SDS011;12542;50.924;4.516;2023-06-22T04:05:08;11.57;;;6.72;;
24407;SDS011;12542;50.924;4.516;2023-06-22T04:07:35;9.35;;;6.28;;
24407;SDS011;12542;50.924;4.516;2023-06-22T04:10:02;10.20;;;6.38;;
24407;SDS011;12542;50.924;4.516;2023-06-22T04:12:32;9.43;;;6.32;;
24407;SDS011;12542;50.924;4.516;2023-06-22T04:14:59;12.45;;;7.07;;
24407;SDS011;12542;50.924;4.516;2023-06-22T04:17:24;11.77;;;6.57;;
24407;SDS011;12542;50.924;4.516;2023-06-22T04:19:50;13.57;;;6.65;;
24407;SDS011;12542;50.924;4.516;2023-06-22T04:22:16;9.20;;;5.97;;
24407;SDS011;12542;50.924;4.516;2023-06-22T04:24:42;8.98;;;6.22;;
24407;SDS011;12542;50.924;4.516;2023-06-22T04:27:09;10.52;;;6.97;;
24407;SDS011;12542;50.924;4.516;2023-06-22T04:29:34;12.30;;;6.55;;
24407;SDS011;12542;50.924;4.516;2023-06-22T04:32:00;10.90;;;6.22;;
24407;SDS011;12542;50.924;4.516;2023-06-22T04:34:30;10.73;;;6.53;;
24407;SDS011;12542;50.924;4.516;2023-06-22T04:36:56;10.25;;;6.70;;
24407;SDS011;12542;50.924;4.516;2023-06-22T04:39:22;9.77;;;6.97;;
24407;SDS011;12542;50.924;4.516;2023-06-22T04:41:49;12.30;;;7.45;;
24407;SDS011;12542;50.924;4.516;2023-06-22T04:44:16;12.75;;;7.85;;
24407;SDS011;12542;50.924;4.516;2023-06-22T04:46:50;8.48;;;6.55;;
24407;SDS011;12542;50.924;4.516;2023-06-22T04:49:25;10.75;;;7.20;;
24407;SDS011;12542;50.924;4.516;2023-06-22T04:52:05;11.48;;;7.53;;
24407;SDS011;12542;50.924;4.516;2023-06-22T04:54:32;11.88;;;7.55;;
24407;SDS011;12542;50.924;4.516;2023-06-22T04:57:02;10.02;;;7.03;;
24407;SDS011;12542;50.924;4.516;2023-06-22T04:59:29;11.23;;;7.43;;
24407;SDS011;12542;50.924;4.516;2023-06-22T05:04:23;14.27;;;7.78;;
24407;SDS011;12542;50.924;4.516;2023-06-22T05:06:49;9.85;;;6.80;;
24407;SDS011;12542;50.924;4.516;2023-06-22T05:09:15;13.20;;;7.78;;
24407;SDS011;12542;50.924;4.516;2023-06-22T05:11:42;13.20;;;7.57;;
24407;SDS011;12542;50.924;4.516;2023-06-22T05:14:08;14.30;;;8.60;;
24407;SDS011;12542;50.924;4.516;2023-06-22T05:16:34;11.18;;;7.97;;
24407;SDS011;12542;50.924;4.516;2023-06-22T05:18:59;11.98;;;7.80;;
24407;SDS011;12542;50.924;4.516;2023-06-22T05:21:28;11.38;;;8.02;;
24407;SDS011;12542;50.924;4.516;2023-06-22T05:23:54;11.30;;;7.72;;
24407;SDS011;12542;50.924;4.516;2023-06-22T05:26:25;13.57;;;8.68;;
24407;SDS011;12542;50.924;4.516;2023-06-22T05:28:53;13.35;;;8.93;;
24407;SDS011;12542;50.924;4.516;2023-06-22T05:31:20;12.60;;;7.95;;
24407;SDS011;12542;50.924;4.516;2023-06-22T05:33:46;10.32;;;7.57;;
24407;SDS011;12542;50.924;4.516;2023-06-22T05:36:15;11.40;;;7.95;;
24407;SDS011;12542;50.924;4.516;2023-06-22T05:38:41;17.40;;;8.02;;
24407;SDS011;12542;50.924;4.516;2023-06-22T05:41:07;12.88;;;8.20;;
24407;SDS011;12542;50.924;4.516;2023-06-22T05:43:33;12.80;;;7.72;;
24407;SDS011;12542;50.924;4.516;2023-06-22T05:46:00;12.98;;;8.55;;
24407;SDS011;12542;50.924;4.516;2023-06-22T05:48:27;13.70;;;7.85;;
24407;SDS011;12542;50.924;4.516;2023-06-22T05:50:53;14.77;;;8.90;;
24407;SDS011;12542;50.924;4.516;2023-06-22T05:53:19;12.77;;;9.25;;
24407;SDS011;12542;50.924;4.516;2023-06-22T05:55:45;13.60;;;8.50;;
24407;SDS011;12542;50.924;4.516;2023-06-22T05:58:11;15.82;;;9.20;;
24407;SDS011;12542;50.924;4.516;2023-06-22T06:00:38;14.80;;;9.70;;
24407;SDS011;12542;50.924;4.516;2023-06-22T06:03:06;14.68;;;10.25;;
24407;SDS011;12542;50.924;4.516;2023-06-22T06:05:33;16.30;;;11.05;;
24407;SDS011;12542;50.924;4.516;2023-06-22T06:08:02;13.32;;;9.35;;
24407;SDS011;12542;50.924;4.516;2023-06-22T06:10:30;13.43;;;9.52;;
24407;SDS011;12542;50.924;4.516;2023-06-22T06:12:57;14.05;;;9.88;;
24407;SDS011;12542;50.924;4.516;2023-06-22T06:15:22;14.20;;;9.13;;
24407;SDS011;12542;50.924;4.516;2023-06-22T06:17:49;16.20;;;9.65;;
24407;SDS011;12542;50.924;4.516;2023-06-22T06:20:20;16.95;;;10.13;;
24407;SDS011;12542;50.924;4.516;2023-06-22T06:22:47;15.00;;;9.65;;
24407;SDS011;12542;50.924;4.516;2023-06-22T06:25:13;18.05;;;10.23;;
24407;SDS011;12542;50.924;4.516;2023-06-22T06:27:43;19.10;;;10.63;;
24407;SDS011;12542;50.924;4.516;2023-06-22T06:30:10;15.35;;;10.73;;
24407;SDS011;12542;50.924;4.516;2023-06-22T06:32:37;16.83;;;11.02;;
24407;SDS011;12542;50.924;4.516;2023-06-22T06:35:04;15.20;;;11.27;;
24407;SDS011;12542;50.924;4.516;2023-06-22T06:37:31;16.50;;;10.50;;
24407;SDS011;12542;50.924;4.516;2023-06-22T06:39:57;15.05;;;10.43;;
24407;SDS011;12542;50.924;4.516;2023-06-22T06:42:22;17.85;;;10.95;;
24407;SDS011;12542;50.924;4.516;2023-06-22T06:44:49;15.52;;;10.80;;
24407;SDS011;12542;50.924;4.516;2023-06-22T06:47:15;16.10;;;10.55;;
24407;SDS011;12542;50.924;4.516;2023-06-22T06:49:42;19.33;;;12.05;;
24407;SDS011;12542;50.924;4.516;2023-06-22T06:52:07;16.23;;;11.07;;
24407;SDS011;12542;50.924;4.516;2023-06-22T06:54:33;15.25;;;10.98;;
24407;SDS011;12542;50.924;4.516;2023-06-22T06:56:59;16.45;;;11.85;;
24407;SDS011;12542;50.924;4.516;2023-06-22T06:59:25;17.02;;;11.65;;
24407;SDS011;12542;50.924;4.516;2023-06-22T07:01:50;22.70;;;13.15;;
24407;SDS011;12542;50.924;4.516;2023-06-22T07:04:16;16.52;;;12.07;;
24407;SDS011;12542;50.924;4.516;2023-06-22T07:06:45;17.38;;;12.50;;
24407;SDS011;12542;50.924;4.516;2023-06-22T07:09:10;20.58;;;13.85;;
24407;SDS011;12542;50.924;4.516;2023-06-22T07:11:36;20.70;;;13.23;;
24407;SDS011;12542;50.924;4.516;2023-06-22T07:14:02;18.45;;;13.77;;
24407;SDS011;12542;50.924;4.516;2023-06-22T07:16:28;19.73;;;13.27;;
24407;SDS011;12542;50.924;4.516;2023-06-22T07:18:56;17.98;;;13.52;;
24407;SDS011;12542;50.924;4.516;2023-06-22T07:21:22;16.88;;;12.77;;
24407;SDS011;12542;50.924;4.516;2023-06-22T07:23:48;20.40;;;13.95;;
24407;SDS011;12542;50.924;4.516;2023-06-22T07:26:13;19.45;;;12.82;;
24407;SDS011;12542;50.924;4.516;2023-06-22T07:28:41;18.63;;;12.30;;
24407;SDS011;12542;50.924;4.516;2023-06-22T07:31:07;21.30;;;14.02;;
24407;SDS011;12542;50.924;4.516;2023-06-22T07:33:33;17.42;;;12.93;;
24407;SDS011;12542;50.924;4.516;2023-06-22T07:35:58;19.25;;;13.00;;
24407;SDS011;12542;50.924;4.516;2023-06-22T07:38:24;20.88;;;13.60;;
24407;SDS011;12542;50.924;4.516;2023-06-22T07:40:50;17.70;;;13.05;;
24407;SDS011;12542;50.924;4.516;2023-06-22T07:43:18;18.48;;;13.25;;
24407;SDS011;12542;50.924;4.516;2023-06-22T07:45:50;20.00;;;13.98;;
24407;SDS011;12542;50.924;4.516;2023-06-22T07:48:22;19.77;;;13.07;;
24407;SDS011;12542;50.924;4.516;2023-06-22T07:50:48;19.77;;;14.02;;
24407;SDS011;12542;50.924;4.516;2023-06-22T07:53:13;19.50;;;14.25;;
24407;SDS011;12542;50.924;4.516;2023-06-22T07:55:39;19.75;;;13.02;;
24407;SDS011;12542;50.924;4.516;2023-06-22T07:58:05;22.70;;;13.65;;
24407;SDS011;12542;50.924;4.516;2023-06-22T08:00:31;20.52;;;13.63;;
24407;SDS011;12542;50.924;4.516;2023-06-22T08:02:58;20.08;;;14.07;;
24407;SDS011;12542;50.924;4.516;2023-06-22T08:05:24;19.77;;;13.68;;
24407;SDS011;12542;50.924;4.516;2023-06-22T08:07:50;21.80;;;13.75;;
24407;SDS011;12542;50.924;4.516;2023-06-22T08:10:15;18.65;;;12.88;;
24407;SDS011;12542;50.924;4.516;2023-06-22T08:12:42;19.80;;;13.82;;
24407;SDS011;12542;50.924;4.516;2023-06-22T08:15:07;18.85;;;13.93;;
24407;SDS011;12542;50.924;4.516;2023-06-22T08:17:36;22.77;;;14.35;;
24407;SDS011;12542;50.924;4.516;2023-06-22T08:20:02;17.38;;;12.85;;
24407;SDS011;12542;50.924;4.516;2023-06-22T08:22:34;20.73;;;14.25;;
24407;SDS011;12542;50.924;4.516;2023-06-22T08:25:01;19.60;;;13.60;;
24407;SDS011;12542;50.924;4.516;2023-06-22T08:27:29;19.55;;;13.40;;
24407;SDS011;12542;50.924;4.516;2023-06-22T08:29:59;17.33;;;13.85;;
24407;SDS011;12542;50.924;4.516;2023-06-22T08:32:25;19.17;;;13.35;;
24407;SDS011;12542;50.924;4.516;2023-06-22T08:34:55;18.25;;;13.10;;
24407;SDS011;12542;50.924;4.516;2023-06-22T08:37:22;17.52;;;13.68;;
24407;SDS011;12542;50.924;4.516;2023-06-22T08:39:59;18.75;;;12.82;;
24407;SDS011;12542;50.924;4.516;2023-06-22T08:42:26;18.92;;;13.85;;
24407;SDS011;12542;50.924;4.516;2023-06-22T08:44:52;19.73;;;14.13;;
24407;SDS011;12542;50.924;4.516;2023-06-22T08:47:18;17.10;;;11.57;;
24407;SDS011;12542;50.924;4.516;2023-06-22T08:49:44;17.08;;;12.35;;
24407;SDS011;12542;50.924;4.516;2023-06-22T08:52:10;16.35;;;11.27;;
24407;SDS011;12542;50.924;4.516;2023-06-22T08:54:38;15.75;;;11.10;;
24407;SDS011;12542;50.924;4.516;2023-06-22T08:57:06;16.90;;;11.07;;
24407;SDS011;12542;50.924;4.516;2023-06-22T08:59:32;15.20;;;11.23;;
24407;SDS011;12542;50.924;4.516;2023-06-22T09:01:57;14.30;;;10.50;;
24407;SDS011;12542;50.924;4.516;2023-06-22T09:04:24;15.85;;;10.60;;
24407;SDS011;12542;50.924;4.516;2023-06-22T09:06:49;15.48;;;11.25;;
24407;SDS011;12542;50.924;4.516;2023-06-22T09:09:17;13.20;;;10.85;;
24407;SDS011;12542;50.924;4.516;2023-06-22T09:11:43;15.55;;;10.13;;
24407;SDS011;12542;50.924;4.516;2023-06-22T09:14:10;16.63;;;11.00;;
24407;SDS011;12542;50.924;4.516;2023-06-22T09:16:36;16.35;;;11.20;;
24407;SDS011;12542;50.924;4.516;2023-06-22T09:19:02;13.88;;;10.70;;
24407;SDS011;12542;50.924;4.516;2023-06-22T09:21:28;15.55;;;9.77;;
24407;SDS011;12542;50.924;4.516;2023-06-22T09:23:54;13.82;;;10.10;;
24407;SDS011;12542;50.924;4.516;2023-06-22T09:26:20;17.15;;;11.27;;
24407;SDS011;12542;50.924;4.516;2023-06-22T09:28:48;15.25;;;10.05;;
24407;SDS011;12542;50.924;4.516;2023-06-22T09:31:14;12.88;;;10.13;;
24407;SDS011;12542;50.924;4.516;2023-06-22T09:33:41;13.07;;;10.40;;
24407;SDS011;12542;50.924;4.516;2023-06-22T09:36:07;14.55;;;9.95;;
24407;SDS011;12542;50.924;4.516;2023-06-22T09:38:39;16.50;;;9.90;;
24407;SDS011;12542;50.924;4.516;2023-06-22T09:41:04;15.00;;;11.05;;
24407;SDS011;12542;50.924;4.516;2023-06-22T09:43:31;16.58;;;11.75;;
24407;SDS011;12542;50.924;4.516;2023-06-22T09:46:00;16.77;;;12.10;;
24407;SDS011;12542;50.924;4.516;2023-06-22T09:48:27;16.50;;;11.60;;
24407;SDS011;12542;50.924;4.516;2023-06-22T09:50:54;20.60;;;13.55;;
24407;SDS011;12542;50.924;4.516;2023-06-22T09:53:20;22.13;;;13.77;;
24407;SDS011;12542;50.924;4.516;2023-06-22T09:55:46;22.75;;;14.32;;
24407;SDS011;12542;50.924;4.516;2023-06-22T09:58:12;20.25;;;14.02;;
24407;SDS011;12542;50.924;4.516;2023-06-22T10:00:37;27.23;;;14.60;;
24407;SDS011;12542;50.924;4.516;2023-06-22T10:03:03;23.58;;;14.65;;
24407;SDS011;12542;50.924;4.516;2023-06-22T10:05:29;18.02;;;12.90;;
24407;SDS011;12542;50.924;4.516;2023-06-22T10:07:54;19.58;;;13.75;;
24407;SDS011;12542;50.924;4.516;2023-06-22T10:10:20;17.65;;;12.18;;
24407;SDS011;12542;50.924;4.516;2023-06-22T10:12:46;20.10;;;13.70;;
24407;SDS011;12542;50.924;4.516;2023-06-22T10:15:19;19.98;;;13.77;;
24407;SDS011;12542;50.924;4.516;2023-06-22T10:17:46;16.13;;;12.57;;
24407;SDS011;12542;50.924;4.516;2023-06-22T10:20:12;17.55;;;13.77;;
24407;SDS011;12542;50.924;4.516;2023-06-22T10:22:41;20.30;;;14.13;;
24407;SDS011;12542;50.924;4.516;2023-06-22T10:25:08;21.85;;;13.30;;
24407;SDS011;12542;50.924;4.516;2023-06-22T10:27:35;17.30;;;13.88;;
24407;SDS011;12542;50.924;4.516;2023-06-22T10:30:01;18.00;;;13.75;;
24407;SDS011;12542;50.924;4.516;2023-06-22T10:32:26;19.05;;;13.75;;
24407;SDS011;12542;50.924;4.516;2023-06-22T10:34:53;18.95;;;13.05;;
24407;SDS011;12542;50.924;4.516;2023-06-22T10:37:19;19.83;;;13.40;;
24407;SDS011;12542;50.924;4.516;2023-06-22T10:39:45;19.75;;;12.95;;
24407;SDS011;12542;50.924;4.516;2023-06-22T10:42:11;18.15;;;13.85;;
24407;SDS011;12542;50.924;4.516;2023-06-22T10:44:37;24.85;;;15.15;;
24407;SDS011;12542;50.924;4.516;2023-06-22T10:47:05;23.05;;;15.32;;
24407;SDS011;12542;50.924;4.516;2023-06-22T10:49:31;20.23;;;15.65;;
24407;SDS011;12542;50.924;4.516;2023-06-22T10:51:57;21.73;;;15.70;;
24407;SDS011;12542;50.924;4.516;2023-06-22T10:54:23;22.80;;;16.63;;
24407;SDS011;12542;50.924;4.516;2023-06-22T10:56:49;21.45;;;15.93;;
24407;SDS011;12542;50.924;4.516;2023-06-22T10:59:14;22.25;;;16.40;;
24407;SDS011;12542;50.924;4.516;2023-06-22T11:01:41;21.23;;;17.08;;
24407;SDS011;12542;50.924;4.516;2023-06-22T11:04:06;23.92;;;17.75;;
24407;SDS011;12542;50.924;4.516;2023-06-22T11:06:32;28.92;;;19.63;;
24407;SDS011;12542;50.924;4.516;2023-06-22T11:08:58;26.50;;;19.25;;
24407;SDS011;12542;50.924;4.516;2023-06-22T11:11:26;27.70;;;20.50;;
24407;SDS011;12542;50.924;4.516;2023-06-22T11:13:52;29.85;;;21.38;;
24407;SDS011;12542;50.924;4.516;2023-06-22T11:16:20;30.33;;;21.05;;
24407;SDS011;12542;50.924;4.516;2023-06-22T11:18:46;35.13;;;22.60;;
24407;SDS011;12542;50.924;4.516;2023-06-22T11:21:12;28.65;;;22.90;;
24407;SDS011;12542;50.924;4.516;2023-06-22T11:23:41;28.55;;;21.38;;
24407;SDS011;12542;50.924;4.516;2023-06-22T11:26:07;30.35;;;21.05;;
24407;SDS011;12542;50.924;4.516;2023-06-22T11:28:35;30.75;;;20.83;;
24407;SDS011;12542;50.924;4.516;2023-06-22T11:31:01;25.40;;;19.50;;
24407;SDS011;12542;50.924;4.516;2023-06-22T11:33:27;27.10;;;20.75;;
24407;SDS011;12542;50.924;4.516;2023-06-22T11:35:52;27.85;;;20.48;;
24407;SDS011;12542;50.924;4.516;2023-06-22T11:38:18;28.10;;;19.92;;
24407;SDS011;12542;50.924;4.516;2023-06-22T11:40:43;24.80;;;20.30;;
24407;SDS011;12542;50.924;4.516;2023-06-22T11:43:09;24.95;;;18.75;;
24407;SDS011;12542;50.924;4.516;2023-06-22T11:45:35;25.05;;;18.98;;
24407;SDS011;12542;50.924;4.516;2023-06-22T11:48:01;25.30;;;19.05;;
24407;SDS011;12542;50.924;4.516;2023-06-22T11:50:26;26.60;;;19.88;;
24407;SDS011;12542;50.924;4.516;2023-06-22T11:52:55;26.23;;;19.15;;
24407;SDS011;12542;50.924;4.516;2023-06-22T11:55:20;25.05;;;18.90;;
24407;SDS011;12542;50.924;4.516;2023-06-22T11:57:56;26.90;;;19.38;;
24407;SDS011;12542;50.924;4.516;2023-06-22T12:00:25;27.20;;;20.00;;
24407;SDS011;12542;50.924;4.516;2023-06-22T12:02:51;32.63;;;21.05;;
24407;SDS011;12542;50.924;4.516;2023-06-22T12:05:20;24.67;;;19.42;;
24407;SDS011;12542;50.924;4.516;2023-06-22T12:07:49;28.25;;;19.90;;
24407;SDS011;12542;50.924;4.516;2023-06-22T12:10:17;26.70;;;20.17;;
24407;SDS011;12542;50.924;4.516;2023-06-22T12:12:43;25.05;;;19.77;;
24407;SDS011;12542;50.924;4.516;2023-06-22T12:15:09;27.58;;;20.85;;
24407;SDS011;12542;50.924;4.516;2023-06-22T12:17:36;26.63;;;20.88;;
24407;SDS011;12542;50.924;4.516;2023-06-22T12:20:01;28.35;;;21.15;;
24407;SDS011;12542;50.924;4.516;2023-06-22T12:22:30;29.35;;;20.80;;
24407;SDS011;12542;50.924;4.516;2023-06-22T12:24:57;28.73;;;21.63;;
24407;SDS011;12542;50.924;4.516;2023-06-22T12:27:26;27.73;;;21.10;;
24407;SDS011;12542;50.924;4.516;2023-06-22T12:29:51;27.92;;;20.98;;
24407;SDS011;12542;50.924;4.516;2023-06-22T12:32:17;28.65;;;20.75;;
24407;SDS011;12542;50.924;4.516;2023-06-22T12:34:44;27.92;;;20.88;;
24407;SDS011;12542;50.924;4.516;2023-06-22T12:37:10;29.35;;;22.13;;
24407;SDS011;12542;50.924;4.516;2023-06-22T12:39:35;30.95;;;23.23;;
24407;SDS011;12542;50.924;4.516;2023-06-22T12:42:01;28.92;;;22.95;;
24407;SDS011;12542;50.924;4.516;2023-06-22T12:44:27;33.42;;;24.17;;
24407;SDS011;12542;50.924;4.516;2023-06-22T12:46:53;31.48;;;23.95;;
24407;SDS011;12542;50.924;4.516;2023-06-22T12:49:19;29.58;;;22.60;;
24407;SDS011;12542;50.924;4.516;2023-06-22T12:51:45;32.85;;;25.13;;
24407;SDS011;12542;50.924;4.516;2023-06-22T12:54:13;32.63;;;24.30;;
24407;SDS011;12542;50.924;4.516;2023-06-22T12:56:38;32.13;;;24.38;;
24407;SDS011;12542;50.924;4.516;2023-06-22T12:59:04;36.17;;;25.33;;
24407;SDS011;12542;50.924;4.516;2023-06-22T13:01:31;36.75;;;26.65;;
24407;SDS011;12542;50.924;4.516;2023-06-22T13:03:57;36.90;;;25.67;;
24407;SDS011;12542;50.924;4.516;2023-06-22T13:06:24;36.22;;;26.42;;
24407;SDS011;12542;50.924;4.516;2023-06-22T13:08:50;38.20;;;25.75;;
24407;SDS011;12542;50.924;4.516;2023-06-22T13:11:15;41.95;;;26.92;;
24407;SDS011;12542;50.924;4.516;2023-06-22T13:13:41;35.70;;;26.27;;
24407;SDS011;12542;50.924;4.516;2023-06-22T13:16:08;40.88;;;27.95;;
24407;SDS011;12542;50.924;4.516;2023-06-22T13:18:34;38.63;;;27.98;;
24407;SDS011;12542;50.924;4.516;2023-06-22T13:21:01;35.78;;;27.67;;
24407;SDS011;12542;50.924;4.516;2023-06-22T13:23:30;35.83;;;27.02;;
24407;SDS011;12542;50.924;4.516;2023-06-22T13:25:56;37.20;;;26.30;;
24407;SDS011;12542;50.924;4.516;2023-06-22T13:28:22;35.28;;;27.35;;
24407;SDS011;12542;50.924;4.516;2023-06-22T13:30:48;35.42;;;25.67;;
24407;SDS011;12542;50.924;4.516;2023-06-22T13:33:14;39.70;;;27.05;;
24407;SDS011;12542;50.924;4.516;2023-06-22T13:35:40;36.63;;;26.60;;
24407;SDS011;12542;50.924;4.516;2023-06-22T13:38:07;34.53;;;26.00;;
24407;SDS011;12542;50.924;4.516;2023-06-22T13:40:34;36.15;;;26.83;;
24407;SDS011;12542;50.924;4.516;2023-06-22T13:43:00;37.92;;;26.90;;
24407;SDS011;12542;50.924;4.516;2023-06-22T13:45:26;36.88;;;26.35;;
24407;SDS011;12542;50.924;4.516;2023-06-22T13:47:52;36.58;;;26.50;;
24407;SDS011;12542;50.924;4.516;2023-06-22T13:50:18;40.63;;;27.15;;
24407;SDS011;12542;50.924;4.516;2023-06-22T13:52:44;40.95;;;27.15;;
24407;SDS011;12542;50.924;4.516;2023-06-22T13:55:10;36.85;;;27.35;;
24407;SDS011;12542;50.924;4.516;2023-06-22T13:57:35;39.70;;;26.27;;
24407;SDS011;12542;50.924;4.516;2023-06-22T14:00:03;35.17;;;26.58;;
24407;SDS011;12542;50.924;4.516;2023-06-22T14:02:30;35.83;;;26.63;;
24407;SDS011;12542;50.924;4.516;2023-06-22T14:04:56;39.10;;;27.23;;
24407;SDS011;12542;50.924;4.516;2023-06-22T14:07:21;41.45;;;28.08;;
24407;SDS011;12542;50.924;4.516;2023-06-22T14:09:49;39.03;;;28.17;;
24407;SDS011;12542;50.924;4.516;2023-06-22T14:12:15;39.53;;;29.02;;
24407;SDS011;12542;50.924;4.516;2023-06-22T14:14:43;40.88;;;28.42;;
24407;SDS011;12542;50.924;4.516;2023-06-22T14:17:09;38.88;;;27.90;;
24407;SDS011;12542;50.924;4.516;2023-06-22T14:19:35;40.13;;;29.25;;
24407;SDS011;12542;50.924;4.516;2023-06-22T14:22:01;44.75;;;29.55;;
24407;SDS011;12542;50.924;4.516;2023-06-22T14:24:27;40.25;;;29.30;;
24407;SDS011;12542;50.924;4.516;2023-06-22T14:26:53;45.08;;;30.58;;
24407;SDS011;12542;50.924;4.516;2023-06-22T14:29:19;44.20;;;31.88;;
24407;SDS011;12542;50.924;4.516;2023-06-22T14:31:45;47.78;;;31.88;;
24407;SDS011;12542;50.924;4.516;2023-06-22T14:34:12;43.33;;;30.50;;
24407;SDS011;12542;50.924;4.516;2023-06-22T14:36:38;45.78;;;31.25;;
24407;SDS011;12542;50.924;4.516;2023-06-22T14:39:03;43.28;;;30.65;;
24407;SDS011;12542;50.924;4.516;2023-06-22T14:41:32;42.80;;;29.98;;